createdAt,value
2023-02-08T00:01:10.512Z,69.94
2023-02-08T00:03:43.453Z,69.52
2023-02-08T00:06:21.641Z,69.55
2023-02-08T00:08:55.170Z,69.52
2023-02-08T00:11:28.008Z,69.76
2023-02-08T00:14:00.770Z,69.58
2023-02-08T00:16:34.864Z,69.11
2023-02-08T00:19:07.787Z,69.28
2023-02-08T00:21:40.756Z,69.74
2023-02-08T00:24:13.486Z,69.15
2023-02-08T00:26:46.102Z,69.47
2023-02-08T00:29:18.937Z,69.38
2023-02-08T00:31:52.962Z,69.69
2023-02-08T00:34:26.272Z,69.62
2023-02-08T00:36:58.959Z,69.53
2023-02-08T00:39:32.156Z,69.91
2023-02-08T00:42:05.257Z,69.64
2023-02-08T00:44:38.727Z,69.89
2023-02-08T00:47:13.162Z,70.01
2023-02-08T00:49:45.883Z,69.97
2023-02-08T00:52:20.515Z,69.83
2023-02-08T00:54:53.441Z,69.94
2023-02-08T00:57:26.162Z,69.80
2023-02-08T00:59:58.848Z,69.99
2023-02-08T01:02:33.013Z,69.70
2023-02-08T01:05:06.812Z,69.96
2023-02-08T01:07:39.896Z,69.86
2023-02-08T01:10:12.990Z,70.03
2023-02-08T01:12:47.044Z,69.97
2023-02-08T01:15:20.000Z,69.81
2023-02-08T01:17:56.346Z,69.98
2023-02-08T01:20:30.108Z,69.96
2023-02-08T01:23:03.291Z,69.87
2023-02-08T01:25:36.074Z,69.81
2023-02-08T01:28:08.935Z,69.66
2023-02-08T01:30:42.334Z,69.67
2023-02-08T01:33:16.943Z,69.62
2023-02-08T01:35:52.142Z,69.80
2023-02-08T01:38:25.091Z,69.79
2023-02-08T01:40:58.109Z,69.87
2023-02-08T01:43:32.595Z,69.62
2023-02-08T01:46:05.926Z,69.65
2023-02-08T01:48:42.227Z,70.01
2023-02-08T01:51:25.622Z,70.19
2023-02-08T01:54:01.188Z,69.71
2023-02-08T01:56:37.176Z,69.51
2023-02-08T01:59:14.737Z,70.14
2023-02-08T02:01:49.801Z,70.32
2023-02-08T02:04:24.149Z,70.22
2023-02-08T02:07:00.217Z,70.39
2023-02-08T02:09:41.009Z,70.29
2023-02-08T02:12:14.994Z,69.93
2023-02-08T02:14:48.378Z,70.02
2023-02-08T02:17:21.678Z,69.97
2023-02-08T02:20:04.344Z,69.96
2023-02-08T02:23:13.210Z,69.88
2023-02-08T02:26:26.144Z,69.86
2023-02-08T02:29:27.520Z,70.34
2023-02-08T02:32:12.480Z,69.99
2023-02-08T02:34:51.012Z,69.84
2023-02-08T02:37:41.959Z,70.44
2023-02-08T02:40:22.953Z,70.14
2023-02-08T02:43:21.584Z,70.15
2023-02-08T02:46:00.823Z,69.92
2023-02-08T02:48:42.418Z,70.41
2023-02-08T02:51:21.391Z,70.41
2023-02-08T02:53:57.726Z,70.30
2023-02-08T02:56:34.607Z,69.95
2023-02-08T02:59:09.755Z,70.41
2023-02-08T03:04:52.083Z,70.47
2023-02-08T03:07:40.994Z,70.21
2023-02-08T03:10:25.765Z,69.96
2023-02-08T03:13:05.599Z,69.68
2023-02-08T03:15:47.328Z,69.65
2023-02-08T03:18:31.570Z,70.48
2023-02-08T03:21:13.019Z,70.32
2023-02-08T03:23:54.143Z,70.19
2023-02-08T03:26:36.850Z,70.43
2023-02-08T03:29:16.546Z,70.50
2023-02-08T03:31:55.270Z,70.42
2023-02-08T03:34:32.829Z,70.64
2023-02-08T03:37:11.384Z,70.31
2023-02-08T03:39:46.436Z,69.92
2023-02-08T03:42:24.058Z,70.43
2023-02-08T03:45:01.363Z,70.59
2023-02-08T03:47:38.611Z,70.68
2023-02-08T03:50:17.377Z,70.26
2023-02-08T03:52:53.378Z,70.52
2023-02-08T03:55:30.584Z,70.86
2023-02-08T03:58:07.662Z,70.34
2023-02-08T04:00:44.060Z,70.18
2023-02-08T04:03:21.072Z,70.61
2023-02-08T04:05:54.064Z,70.75
2023-02-08T04:08:28.282Z,70.48
2023-02-08T04:11:01.412Z,70.22
2023-02-08T04:13:34.055Z,70.83
2023-02-08T04:16:07.379Z,69.95
2023-02-08T04:18:40.132Z,70.28
2023-02-08T04:21:12.962Z,70.40
2023-02-08T04:23:46.881Z,70.38
2023-02-08T04:26:19.687Z,70.19
2023-02-08T04:28:52.352Z,70.82
2023-02-08T04:31:25.120Z,70.29
2023-02-08T04:33:57.918Z,70.96
2023-02-08T04:36:31.034Z,70.85
2023-02-08T04:39:05.194Z,70.57
2023-02-08T04:41:38.115Z,70.43
2023-02-08T04:44:10.909Z,70.32
2023-02-08T04:46:43.657Z,70.51
2023-02-08T04:49:16.553Z,70.30
2023-02-08T04:51:49.332Z,70.89
2023-02-08T04:54:23.172Z,70.59
2023-02-08T04:56:56.404Z,71.00
2023-02-08T04:59:29.318Z,70.94
2023-02-08T05:02:02.000Z,70.53
2023-02-08T05:04:35.125Z,70.80
2023-02-08T05:07:07.832Z,71.18
2023-02-08T05:09:41.854Z,70.42
2023-02-08T05:12:14.714Z,70.75
2023-02-08T05:14:47.238Z,70.43
2023-02-08T05:17:20.220Z,70.34
2023-02-08T05:19:54.984Z,70.99
2023-02-08T05:22:27.777Z,71.02
2023-02-08T05:25:01.913Z,70.51
2023-02-08T05:27:35.464Z,70.50
2023-02-08T05:30:09.478Z,70.51
2023-02-08T05:32:42.358Z,70.08
2023-02-08T05:35:14.886Z,70.87
2023-02-08T05:37:47.681Z,70.63
2023-02-08T05:40:21.733Z,70.55
2023-02-08T05:42:54.493Z,70.04
2023-02-08T05:45:27.229Z,70.41
2023-02-08T05:47:59.760Z,69.76
2023-02-08T05:50:32.578Z,70.40
2023-02-08T05:53:05.464Z,70.26
2023-02-08T05:55:39.735Z,70.02
2023-02-08T05:58:13.219Z,70.29
2023-02-08T06:00:46.326Z,70.58
2023-02-08T06:03:19.147Z,70.35
2023-02-08T06:05:51.870Z,70.52
2023-02-08T06:08:24.527Z,70.51
2023-02-08T06:10:58.843Z,70.08
2023-02-08T06:13:31.814Z,70.62
2023-02-08T06:16:04.410Z,70.50
2023-02-08T06:18:37.097Z,70.88
2023-02-08T06:21:10.034Z,70.14
2023-02-08T06:23:42.739Z,70.66
2023-02-08T06:26:16.846Z,70.44
2023-02-08T06:28:49.599Z,70.11
2023-02-08T06:31:22.527Z,70.41
2023-02-08T06:33:55.329Z,70.63
2023-02-08T06:36:28.257Z,69.96
2023-02-08T06:39:01.065Z,69.89
2023-02-08T06:41:35.102Z,70.67
2023-02-08T06:44:07.880Z,70.45
2023-02-08T06:46:40.553Z,70.56
2023-02-08T06:49:13.309Z,70.27
2023-02-08T06:51:46.098Z,69.97
2023-02-08T06:54:18.848Z,70.28
2023-02-08T06:56:54.508Z,70.07
2023-02-08T06:59:27.280Z,70.34
2023-02-08T07:02:01.307Z,70.38
2023-02-08T07:04:34.270Z,70.34
2023-02-08T07:07:06.944Z,70.05
2023-02-08T07:09:40.362Z,70.58
2023-02-08T07:12:14.472Z,70.17
2023-02-08T07:14:47.401Z,69.76
2023-02-08T07:17:20.074Z,70.27
2023-02-08T07:19:52.878Z,70.20
2023-02-08T07:22:25.452Z,70.55
2023-02-08T07:24:58.218Z,69.86
2023-02-08T07:27:32.233Z,70.22
2023-02-08T07:30:05.778Z,70.37
2023-02-08T07:32:38.459Z,70.01
2023-02-08T07:35:11.335Z,70.11
2023-02-08T07:37:44.045Z,69.97
2023-02-08T07:40:17.102Z,70.16
2023-02-08T07:42:51.351Z,69.86
2023-02-08T07:45:38.755Z,69.97
2023-02-08T07:48:11.712Z,70.34
2023-02-08T07:50:44.473Z,70.46
2023-02-08T07:53:17.826Z,69.61
2023-02-08T07:55:50.567Z,70.50
2023-02-08T07:58:24.757Z,70.01
2023-02-08T08:00:57.982Z,70.61
2023-02-08T08:03:30.758Z,69.81
2023-02-08T08:06:03.593Z,70.46
2023-02-08T08:08:36.249Z,70.16
2023-02-08T08:11:09.337Z,69.86
2023-02-08T08:13:43.770Z,69.95
2023-02-08T08:16:17.223Z,70.45
2023-02-08T08:18:50.782Z,70.07
2023-02-08T08:21:23.634Z,70.83
2023-02-08T08:23:56.388Z,70.32
2023-02-08T08:26:29.796Z,70.49
2023-02-08T08:29:04.014Z,69.99
2023-02-08T08:31:38.540Z,70.49
2023-02-08T08:34:11.414Z,70.04
2023-02-08T08:36:44.524Z,70.29
2023-02-08T08:39:17.314Z,70.16
2023-02-08T08:41:50.139Z,70.15
2023-02-08T08:44:24.160Z,69.90
2023-02-08T08:46:57.852Z,70.11
2023-02-08T08:49:30.658Z,70.14
2023-02-08T08:52:03.528Z,70.06
2023-02-08T08:54:37.656Z,70.40
2023-02-08T08:57:12.053Z,70.35
2023-02-08T08:59:46.659Z,70.11
2023-02-08T09:02:19.586Z,70.00
2023-02-08T09:04:52.470Z,70.40
2023-02-08T09:07:26.036Z,70.80
2023-02-08T09:10:02.104Z,70.31
2023-02-08T09:12:35.161Z,70.42
2023-02-08T09:15:09.920Z,70.76
2023-02-08T09:17:45.817Z,70.58
2023-02-08T09:20:18.781Z,70.85
2023-02-08T09:22:53.247Z,70.91
2023-02-08T09:25:26.588Z,70.75
2023-02-08T09:27:59.571Z,70.78
2023-02-08T09:30:34.888Z,70.71
2023-02-08T09:33:07.719Z,70.90
2023-02-08T09:35:40.548Z,70.82
2023-02-08T09:38:13.494Z,70.57
2023-02-08T09:40:50.512Z,70.97
2023-02-08T09:43:32.922Z,70.79
2023-02-08T09:46:12.502Z,70.80
2023-02-08T09:48:46.948Z,70.67
2023-02-08T09:51:28.072Z,71.11
2023-02-08T09:54:06.145Z,70.86
2023-02-08T09:56:42.331Z,70.75
2023-02-08T09:59:20.324Z,71.41
2023-02-08T10:02:00.267Z,71.05
2023-02-08T10:04:42.393Z,70.47
2023-02-08T10:07:15.165Z,70.96
2023-02-08T10:09:48.014Z,70.36
2023-02-08T10:12:27.068Z,70.55
2023-02-08T10:15:09.122Z,70.65
2023-02-08T10:18:07.174Z,70.77
2023-02-08T10:20:56.639Z,70.29
2023-02-08T10:23:45.114Z,70.55
2023-02-08T10:26:33.141Z,70.37
2023-02-08T10:29:41.461Z,70.75
2023-02-08T10:32:51.199Z,70.55
2023-02-08T10:35:32.165Z,71.55
2023-02-08T10:38:25.248Z,70.76
2023-02-08T10:40:59.804Z,71.32
2023-02-08T10:43:41.792Z,72.62
2023-02-08T10:46:25.467Z,73.84
2023-02-08T10:49:08.394Z,73.40
2023-02-08T10:51:55.210Z,73.96
2023-02-08T10:54:28.637Z,74.38
2023-02-08T10:57:04.633Z,74.85
2023-02-08T10:59:49.301Z,74.40
2023-02-08T11:02:26.486Z,75.05
2023-02-08T11:05:00.879Z,70.29
2023-02-08T11:07:37.557Z,72.62
2023-02-08T11:10:24.200Z,73.63
2023-02-08T11:15:54.075Z,72.35
2023-02-08T11:18:33.482Z,73.65
2023-02-08T11:21:29.498Z,73.40
2023-02-08T11:24:28.090Z,74.17
2023-02-08T11:27:04.372Z,75.24
2023-02-08T11:29:46.205Z,72.97
2023-02-08T11:32:24.102Z,73.24
2023-02-08T11:35:13.416Z,72.46
2023-02-08T11:37:50.137Z,74.69
2023-02-08T11:40:37.849Z,72.47
2023-02-08T11:43:22.670Z,71.22
2023-02-08T11:45:58.296Z,71.61
2023-02-08T11:48:42.152Z,72.07
2023-02-08T11:51:25.150Z,70.84
2023-02-08T11:54:00.602Z,70.61
2023-02-08T11:56:36.075Z,70.64
2023-02-08T11:59:21.086Z,71.41
2023-02-08T12:01:54.066Z,70.15
2023-02-08T12:04:27.618Z,70.79
2023-02-08T12:07:26.600Z,69.92
2023-02-08T12:10:19.869Z,72.21
2023-02-08T12:13:13.649Z,71.09
2023-02-08T12:15:59.177Z,71.45
2023-02-08T12:18:45.428Z,72.12
2023-02-08T12:21:23.096Z,71.82
2023-02-08T12:23:58.651Z,73.36
2023-02-08T12:26:59.956Z,72.81
2023-02-08T12:29:48.348Z,72.77
2023-02-08T12:32:35.816Z,73.41
2023-02-08T12:35:45.734Z,73.41
2023-02-08T12:38:54.104Z,74.38
2023-02-08T12:41:33.188Z,74.87
2023-02-08T12:44:12.886Z,73.68
2023-02-08T12:46:56.528Z,73.88
2023-02-08T12:49:51.206Z,74.85
2023-02-08T12:52:35.229Z,75.33
2023-02-08T12:55:19.954Z,74.56
2023-02-08T12:57:58.336Z,74.47
2023-02-08T13:00:37.246Z,75.51
2023-02-08T13:03:22.050Z,74.96
2023-02-08T13:06:01.975Z,75.29
2023-02-08T13:08:41.248Z,75.09
2023-02-08T13:11:22.008Z,74.61
2023-02-08T13:13:59.910Z,74.39
2023-02-08T13:16:36.993Z,74.78
2023-02-08T13:19:31.873Z,72.80
2023-02-08T13:22:06.105Z,73.03
2023-02-08T13:24:44.512Z,73.10
2023-02-08T13:27:19.588Z,73.63
2023-02-08T13:29:53.703Z,73.08
2023-02-08T13:32:30.222Z,72.61
2023-02-08T13:35:14.058Z,72.71
2023-02-08T13:37:52.783Z,74.58
2023-02-08T13:40:29.276Z,73.46
2023-02-08T13:43:05.306Z,73.94
2023-02-08T13:45:43.391Z,73.22
2023-02-08T13:48:18.882Z,74.29
2023-02-08T13:50:54.822Z,73.93
2023-02-08T13:54:01.180Z,74.74
2023-02-08T13:56:41.315Z,74.38
2023-02-08T13:59:38.536Z,74.95
2023-02-08T14:02:27.164Z,73.64
2023-02-08T14:05:39.852Z,74.52
2023-02-08T14:08:24.002Z,74.01
2023-02-08T14:11:07.868Z,73.68
2023-02-08T14:13:49.068Z,71.37
2023-02-08T14:16:31.846Z,70.16
2023-02-08T14:19:07.603Z,70.92
2023-02-08T14:21:45.785Z,69.74
2023-02-08T14:24:25.998Z,69.80
2023-02-08T14:27:09.600Z,70.78
2023-02-08T14:29:43.058Z,71.33
2023-02-08T14:32:25.361Z,71.76
2023-02-08T14:35:06.824Z,70.50
2023-02-08T14:37:41.216Z,72.91
2023-02-08T14:40:48.147Z,72.92
2023-02-08T14:43:34.859Z,72.05
2023-02-08T14:46:44.930Z,71.46
2023-02-08T14:49:20.244Z,72.34
2023-02-08T14:51:58.953Z,71.89
2023-02-08T14:54:39.646Z,72.12
2023-02-08T14:57:26.087Z,72.32
2023-02-08T15:00:08.349Z,72.95
2023-02-08T15:02:45.539Z,71.21
2023-02-08T15:05:25.423Z,72.07
2023-02-08T15:08:03.929Z,72.83
2023-02-08T15:10:44.847Z,71.01
2023-02-08T15:13:24.301Z,69.00
2023-02-08T15:15:58.518Z,72.01
2023-02-08T15:18:39.708Z,72.42
2023-02-08T15:21:19.178Z,72.07
2023-02-08T15:24:05.530Z,70.66
2023-02-08T15:26:45.015Z,71.33
2023-02-08T15:29:39.149Z,70.94
2023-02-08T15:32:18.746Z,71.32
2023-02-08T15:37:47.727Z,71.95
2023-02-08T15:40:26.385Z,70.98
2023-02-08T15:43:05.558Z,69.42
2023-02-08T15:45:40.320Z,71.83
2023-02-08T15:48:14.370Z,72.75
2023-02-08T15:50:47.698Z,71.63
2023-02-08T15:53:24.386Z,71.93
2023-02-08T15:56:02.027Z,73.03
2023-02-08T15:58:45.273Z,69.94
2023-02-08T16:01:22.181Z,71.70
2023-02-08T16:04:01.820Z,72.27
2023-02-08T16:06:42.083Z,72.59
2023-02-08T16:09:21.454Z,72.26
2023-02-08T16:11:59.317Z,72.31
2023-02-08T16:14:50.672Z,71.97
2023-02-08T16:17:38.674Z,72.04
2023-02-08T16:20:30.153Z,72.39
2023-02-08T16:23:22.930Z,72.76
2023-02-08T16:25:57.756Z,72.60
2023-02-08T16:28:34.954Z,71.95
2023-02-08T16:31:09.115Z,72.58
2023-02-08T16:36:40.944Z,72.49
2023-02-08T16:39:52.784Z,72.84
2023-02-08T16:42:35.970Z,72.95
2023-02-08T16:45:18.099Z,72.86
2023-02-08T16:47:54.084Z,72.45
2023-02-08T16:50:32.304Z,72.18
2023-02-08T16:53:09.081Z,72.04
2023-02-08T16:55:43.708Z,72.18
2023-02-08T16:58:16.847Z,72.41
2023-02-08T17:00:49.773Z,72.97
2023-02-08T17:03:25.372Z,73.42
2023-02-08T17:06:01.705Z,72.93
2023-02-08T17:08:36.307Z,72.90
2023-02-08T17:11:14.489Z,72.65
2023-02-08T17:16:39.920Z,70.85
2023-02-08T17:19:20.239Z,72.62
2023-02-08T17:22:15.724Z,72.66
2023-02-08T17:28:02.394Z,71.83
2023-02-08T17:30:46.244Z,71.98
2023-02-08T17:33:24.397Z,71.95
2023-02-08T17:36:22.739Z,71.86
2023-02-08T17:39:22.888Z,71.58
2023-02-08T17:42:13.731Z,71.40
2023-02-08T17:45:17.232Z,71.53
2023-02-08T17:48:26.821Z,72.11
2023-02-08T17:51:01.323Z,71.65
2023-02-08T17:53:42.352Z,71.78
2023-02-08T17:56:20.520Z,71.82
2023-02-08T17:58:58.425Z,72.46
2023-02-08T18:01:35.065Z,71.49
2023-02-08T18:04:14.595Z,72.04
2023-02-08T18:07:06.048Z,71.71
2023-02-08T18:09:44.686Z,71.34
2023-02-08T18:15:55.086Z,71.26
2023-02-08T18:19:03.653Z,71.41
2023-02-08T18:21:46.722Z,70.50
2023-02-08T18:27:40.930Z,70.96
2023-02-08T18:30:21.696Z,70.96
2023-02-08T18:33:25.450Z,71.14
2023-02-08T18:36:19.937Z,70.49
2023-02-08T18:39:25.281Z,72.33
2023-02-08T18:42:09.444Z,71.21
2023-02-08T18:44:49.670Z,71.55
2023-02-08T18:47:29.710Z,71.21
2023-02-08T18:50:20.907Z,70.92
2023-02-08T18:53:07.577Z,70.60
2023-02-08T18:56:07.115Z,70.71
2023-02-08T18:58:46.862Z,70.65
2023-02-08T19:01:24.436Z,70.89
2023-02-08T19:04:05.416Z,70.55
2023-02-08T19:06:38.850Z,70.85
2023-02-08T19:09:19.485Z,71.29
2023-02-08T19:12:05.684Z,70.05
2023-02-08T19:15:06.857Z,69.65
2023-02-08T19:17:43.801Z,69.87
2023-02-08T19:20:40.131Z,70.31
2023-02-08T19:23:29.069Z,69.94
2023-02-08T19:26:13.296Z,70.80
2023-02-08T19:29:27.402Z,70.19
2023-02-08T19:32:10.856Z,70.16
2023-02-08T19:35:00.888Z,69.96
2023-02-08T19:37:44.354Z,70.36
2023-02-08T19:40:29.342Z,70.57
2023-02-08T19:43:31.765Z,69.96
2023-02-08T19:46:10.769Z,69.87
2023-02-08T19:48:45.224Z,69.74
2023-02-08T19:51:25.027Z,69.32
2023-02-08T19:57:18.923Z,69.75
2023-02-08T19:59:59.384Z,69.48
2023-02-08T20:02:32.952Z,69.59
2023-02-08T20:05:07.775Z,69.20
2023-02-08T20:07:44.776Z,69.36
2023-02-08T20:10:17.748Z,68.95
2023-02-08T20:12:50.959Z,68.66
2023-02-08T20:15:26.544Z,69.50
2023-02-08T20:17:59.741Z,69.56
2023-02-08T20:20:44.376Z,68.82
2023-02-08T20:23:34.918Z,69.04
2023-02-08T20:26:30.892Z,68.84
2023-02-08T20:29:24.315Z,68.68
2023-02-08T20:32:10.101Z,68.73
2023-02-08T20:35:03.195Z,69.38
2023-02-08T20:37:38.324Z,69.20
2023-02-08T20:40:17.160Z,69.25
2023-02-08T20:43:05.158Z,69.87
2023-02-08T20:48:42.272Z,69.59
2023-02-08T20:51:25.889Z,69.39
2023-02-08T20:54:02.146Z,68.98
2023-02-08T20:56:38.263Z,68.78
2023-02-08T20:59:15.911Z,68.27
2023-02-08T21:01:51.263Z,69.33
2023-02-08T21:04:27.253Z,69.86
2023-02-08T21:07:00.528Z,68.85
2023-02-08T21:09:33.852Z,69.31
2023-02-08T21:12:10.277Z,69.09
2023-02-08T21:14:45.690Z,68.92
2023-02-08T21:17:18.752Z,69.44
2023-02-08T21:19:52.079Z,68.60
2023-02-08T21:22:26.603Z,69.18
2023-02-08T21:25:01.215Z,69.47
2023-02-08T21:27:37.613Z,69.55
2023-02-08T21:30:11.626Z,69.02
2023-02-08T21:32:44.474Z,68.89
2023-02-08T21:35:17.656Z,69.26
2023-02-08T21:37:50.556Z,69.00
2023-02-08T21:40:23.141Z,69.36
2023-02-08T21:42:59.343Z,68.64
2023-02-08T21:45:35.094Z,69.07
2023-02-08T21:48:07.905Z,69.02
2023-02-08T21:50:57.910Z,68.88
2023-02-08T21:53:50.260Z,69.30
2023-02-08T21:56:23.357Z,68.45
2023-02-08T21:58:57.980Z,69.05
2023-02-08T22:01:31.553Z,69.53
2023-02-08T22:04:04.748Z,69.08
2023-02-08T22:06:37.872Z,68.66
2023-02-08T22:09:10.984Z,68.87
2023-02-08T22:11:46.067Z,68.64
2023-02-08T22:14:20.636Z,69.20
2023-02-08T22:16:53.709Z,69.34
2023-02-08T22:19:29.151Z,69.44
2023-02-08T22:22:02.459Z,69.66
2023-02-08T22:24:36.113Z,69.22
2023-02-08T22:27:08.819Z,69.39
2023-02-08T22:29:43.530Z,69.60
2023-02-08T22:32:17.297Z,69.42
2023-02-08T22:34:50.451Z,69.58
2023-02-08T22:37:23.530Z,70.08
2023-02-08T22:39:56.348Z,69.95
2023-02-08T22:42:29.111Z,69.54
2023-02-08T22:45:03.208Z,69.46
2023-02-08T22:47:36.674Z,69.95
2023-02-08T22:50:10.572Z,70.00
2023-02-08T22:52:43.346Z,69.91
2023-02-08T22:55:16.057Z,69.29
2023-02-08T22:57:48.777Z,69.38
2023-02-08T23:00:23.269Z,69.39
2023-02-08T23:02:56.200Z,69.76
2023-02-08T23:05:28.772Z,69.37
2023-02-08T23:08:01.617Z,69.35
2023-02-08T23:10:34.526Z,69.70
2023-02-08T23:13:07.551Z,69.34
2023-02-08T23:15:44.066Z,69.80
2023-02-08T23:18:16.773Z,69.40
2023-02-08T23:20:50.044Z,69.83
2023-02-08T23:23:23.499Z,69.49
2023-02-08T23:25:56.226Z,69.15
2023-02-08T23:28:28.977Z,69.07
2023-02-08T23:31:05.418Z,69.69
2023-02-08T23:33:39.340Z,69.09
2023-02-08T23:36:15.060Z,70.03
2023-02-08T23:38:48.351Z,69.61
2023-02-08T23:41:23.321Z,69.44
2023-02-08T23:43:56.031Z,69.88
2023-02-08T23:46:30.827Z,69.33
2023-02-08T23:49:03.719Z,69.43
2023-02-08T23:51:36.351Z,69.03
2023-02-08T23:54:09.303Z,69.06
2023-02-08T23:56:42.089Z,69.28
2023-02-08T23:59:14.798Z,69.17
